Terminal Aerodrome Forecast
Issued by NWS Buffalo, NY

Home | Current Version | Previous Version | Text Only | Print | Product List | Glossary On
Versions: 1 2 3 4 5 6 7 8 9 10 11 12 13 14 15 16 17 18 19 20 21 22 23 24 25 26 27
000
FTUS41 KBUF 230936 AAA
TAFBUF
TAF AMD
KBUF 230936Z 2310/2406 19004KT P6SM SKC
     FM231300 21006KT P6SM SKC
     FM231530 24010KT P6SM SKC
     FM231800 24012G20KT P6SM FEW250
     FM232300 22008KT P6SM FEW250=

USA.gov is the U.S. government's official web portal to all federal, state and local government web resources and services.